createdAt,value
2022-09-21T00:01:42.160Z,3.00
2022-09-21T00:04:10.936Z,3.30
2022-09-21T00:06:39.575Z,3.20
2022-09-21T00:09:09.421Z,3.17
2022-09-21T00:11:38.711Z,2.80
2022-09-21T00:14:11.222Z,3.87
2022-09-21T00:16:41.075Z,2.80
2022-09-21T00:19:10.026Z,2.57
2022-09-21T00:21:39.327Z,3.10
2022-09-21T00:24:08.324Z,2.80
2022-09-21T00:26:37.298Z,2.10
2022-09-21T00:29:08.201Z,2.37
2022-09-21T00:31:37.176Z,2.50
2022-09-21T00:34:07.934Z,2.27
2022-09-21T00:36:36.953Z,3.10
2022-09-21T00:39:05.679Z,2.40
2022-09-21T00:41:35.195Z,2.67
2022-09-21T00:44:32.774Z,2.47
2022-09-21T00:47:05.764Z,2.57
2022-09-21T00:49:36.027Z,2.53
2022-09-21T00:52:06.740Z,2.60
2022-09-21T00:54:40.198Z,2.43
2022-09-21T00:57:09.629Z,2.70
2022-09-21T00:59:40.944Z,2.30
2022-09-21T01:02:10.112Z,2.90
2022-09-21T01:04:40.113Z,2.33
2022-09-21T01:07:13.072Z,2.80
2022-09-21T01:09:43.496Z,2.20
2022-09-21T01:12:26.932Z,2.30
2022-09-21T01:15:18.028Z,2.73
2022-09-21T01:17:52.835Z,2.70
2022-09-21T01:20:57.703Z,2.47
2022-09-21T01:23:43.732Z,2.33
2022-09-21T01:26:22.166Z,2.33
2022-09-21T01:29:14.586Z,2.77
2022-09-21T01:31:50.283Z,6.20
2022-09-21T01:34:27.059Z,3.27
2022-09-21T01:36:58.570Z,3.90
2022-09-21T01:39:28.867Z,4.57
2022-09-21T01:41:58.785Z,4.77
2022-09-21T01:44:33.395Z,3.50
2022-09-21T01:47:03.943Z,2.60
2022-09-21T01:49:37.469Z,3.17
2022-09-21T01:52:14.133Z,3.43
2022-09-21T01:54:49.090Z,2.70
2022-09-21T01:57:25.507Z,4.17
2022-09-21T01:59:57.589Z,3.27
2022-09-21T02:02:33.113Z,3.30
2022-09-21T02:05:03.239Z,3.80
2022-09-21T02:07:33.497Z,4.00
2022-09-21T02:10:03.141Z,4.00
2022-09-21T02:12:33.047Z,5.07
2022-09-21T02:15:04.234Z,5.00
2022-09-21T02:17:42.692Z,4.90
2022-09-21T02:20:20.598Z,4.70
2022-09-21T02:23:01.216Z,6.00
2022-09-21T02:25:40.117Z,5.00
2022-09-21T02:28:15.080Z,4.73
2022-09-21T02:30:53.083Z,4.70
2022-09-21T02:33:27.673Z,5.40
2022-09-21T02:36:01.276Z,5.43
2022-09-21T02:38:38.318Z,5.97
2022-09-21T02:41:13.881Z,5.10
2022-09-21T02:43:48.322Z,5.73
2022-09-21T02:46:25.371Z,5.30
2022-09-21T02:48:57.139Z,5.60
2022-09-21T02:51:31.068Z,5.50
2022-09-21T02:54:03.491Z,5.80
2022-09-21T02:56:33.358Z,6.50
2022-09-21T02:59:05.561Z,5.20
2022-09-21T03:01:36.192Z,5.53
2022-09-21T03:04:04.935Z,5.80
2022-09-21T03:06:33.693Z,4.97
2022-09-21T03:09:02.524Z,5.90
2022-09-21T03:11:31.227Z,6.60
2022-09-21T03:13:59.708Z,5.20
2022-09-21T03:16:29.201Z,4.93
2022-09-21T03:18:59.180Z,5.43
2022-09-21T03:21:35.964Z,5.80
2022-09-21T03:24:05.181Z,5.83
2022-09-21T03:26:34.370Z,6.40
2022-09-21T03:29:03.770Z,5.10
2022-09-21T03:31:36.073Z,6.10
2022-09-21T03:34:06.155Z,6.00
2022-09-21T03:36:34.716Z,6.80
2022-09-21T03:39:03.289Z,7.07
2022-09-21T03:41:32.126Z,6.07
2022-09-21T03:44:00.676Z,7.00
2022-09-21T03:46:29.433Z,5.60
2022-09-21T03:48:58.251Z,6.97
2022-09-21T03:51:28.347Z,6.00
2022-09-21T03:53:57.081Z,7.00
2022-09-21T03:56:25.810Z,5.57
2022-09-21T03:58:54.691Z,5.77
2022-09-21T04:01:23.405Z,6.17
2022-09-21T04:03:51.946Z,7.00
2022-09-21T04:06:20.583Z,7.80
2022-09-21T04:08:52.500Z,7.20
2022-09-21T04:11:23.199Z,7.70
2022-09-21T04:13:53.285Z,7.83
2022-09-21T04:16:21.978Z,7.77
2022-09-21T04:18:50.487Z,7.67
2022-09-21T04:21:19.508Z,7.27
2022-09-21T04:23:49.803Z,9.57
2022-09-21T04:26:24.008Z,6.83
2022-09-21T04:28:53.162Z,7.40
2022-09-21T04:31:22.560Z,8.40
2022-09-21T04:33:52.032Z,9.43
2022-09-21T04:36:21.796Z,8.30
2022-09-21T04:38:52.435Z,8.27
2022-09-21T04:41:21.083Z,7.77
2022-09-21T04:43:50.370Z,8.30
2022-09-21T04:46:20.560Z,8.70
2022-09-21T04:48:50.071Z,8.43
2022-09-21T04:51:18.969Z,8.13
2022-09-21T04:53:47.737Z,9.07
2022-09-21T04:56:18.229Z,9.87
2022-09-21T04:58:46.998Z,8.40
2022-09-21T05:01:15.705Z,9.33
2022-09-21T05:03:44.556Z,12.20
2022-09-21T05:06:13.857Z,11.63
2022-09-21T05:09:00.263Z,13.97
2022-09-21T05:11:30.181Z,11.87
2022-09-21T05:13:59.116Z,11.43
2022-09-21T05:16:27.764Z,10.47
2022-09-21T05:18:56.409Z,11.70
2022-09-21T05:21:25.273Z,9.67
2022-09-21T05:23:54.035Z,10.70
2022-09-21T05:26:22.845Z,12.67
2022-09-21T05:28:53.648Z,12.10
2022-09-21T05:31:39.279Z,10.83
2022-09-21T05:34:20.933Z,10.90
2022-09-21T05:36:55.301Z,10.90
2022-09-21T05:39:24.598Z,10.73
2022-09-21T05:41:53.686Z,9.37
2022-09-21T05:44:24.596Z,9.23
2022-09-21T05:46:59.920Z,9.87
2022-09-21T05:49:41.446Z,9.27
2022-09-21T05:52:17.527Z,8.77
2022-09-21T05:54:57.138Z,9.83
2022-09-21T05:57:38.692Z,10.50
2022-09-21T06:00:17.231Z,11.30
2022-09-21T06:02:56.640Z,14.23
2022-09-21T06:05:25.855Z,23.10
2022-09-21T06:07:54.507Z,12.17
2022-09-21T06:10:24.273Z,11.30
2022-09-21T06:12:52.978Z,9.90
2022-09-21T06:15:23.307Z,9.83
2022-09-21T06:17:51.986Z,10.47
2022-09-21T06:20:22.145Z,9.93
2022-09-21T06:22:52.619Z,10.40
2022-09-21T06:25:22.050Z,10.57
2022-09-21T06:27:50.916Z,10.60
2022-09-21T06:30:19.568Z,11.20
2022-09-21T06:32:49.642Z,10.17
2022-09-21T06:35:18.176Z,8.90
2022-09-21T06:37:46.802Z,9.50
2022-09-21T06:40:15.596Z,9.60
2022-09-21T06:42:45.586Z,11.10
2022-09-21T06:45:14.557Z,10.77
2022-09-21T06:47:50.027Z,8.53
2022-09-21T06:50:18.819Z,9.97
2022-09-21T06:52:49.093Z,9.57
2022-09-21T06:55:18.134Z,9.50
2022-09-21T06:57:47.249Z,9.63
2022-09-21T07:00:16.588Z,9.23
2022-09-21T07:02:45.766Z,9.53
2022-09-21T07:05:15.689Z,8.47
2022-09-21T07:07:44.395Z,8.13
2022-09-21T07:10:17.199Z,7.80
2022-09-21T07:12:49.530Z,8.93
2022-09-21T07:15:19.183Z,8.70
2022-09-21T07:17:51.812Z,10.50
2022-09-21T07:20:22.198Z,13.63
2022-09-21T07:22:50.951Z,8.10
2022-09-21T07:25:19.636Z,10.77
2022-09-21T07:27:48.346Z,8.63
2022-09-21T07:30:16.906Z,9.30
2022-09-21T07:32:45.901Z,9.53
2022-09-21T07:35:14.919Z,9.13
2022-09-21T07:37:44.988Z,8.67
2022-09-21T07:40:13.681Z,7.17
2022-09-21T07:42:45.565Z,7.93
2022-09-21T07:45:14.454Z,7.17
2022-09-21T07:47:43.051Z,6.20
2022-09-21T07:50:11.905Z,8.97
2022-09-21T07:52:40.487Z,8.47
2022-09-21T07:55:10.709Z,7.50
2022-09-21T07:57:57.235Z,7.87
2022-09-21T08:00:25.866Z,7.80
2022-09-21T08:02:54.761Z,7.43
2022-09-21T08:05:23.377Z,6.30
2022-09-21T08:07:53.143Z,6.30
2022-09-21T08:10:23.608Z,5.67
2022-09-21T08:12:52.377Z,5.57
2022-09-21T08:15:46.942Z,5.60
2022-09-21T08:18:09.957Z,6.57
2022-09-21T08:20:38.887Z,6.00
2022-09-21T08:23:07.551Z,7.23
2022-09-21T08:25:37.599Z,6.17
2022-09-21T08:28:09.646Z,6.73
2022-09-21T08:30:38.764Z,5.23
2022-09-21T08:33:08.302Z,4.90
2022-09-21T08:35:38.874Z,5.17
2022-09-21T08:38:11.107Z,5.63
2022-09-21T08:40:42.372Z,5.00
2022-09-21T08:43:13.743Z,5.50
2022-09-21T08:45:45.245Z,5.30
2022-09-21T08:48:21.929Z,5.50
2022-09-21T08:50:56.567Z,6.13
2022-09-21T08:53:31.911Z,5.33
2022-09-21T08:56:03.093Z,5.47
2022-09-21T08:58:34.053Z,4.33
2022-09-21T09:01:21.624Z,4.30
2022-09-21T09:04:06.925Z,5.10
2022-09-21T09:06:46.347Z,5.60
2022-09-21T09:09:49.504Z,5.00
2022-09-21T09:12:36.073Z,5.90
2022-09-21T09:15:20.699Z,5.10
2022-09-21T09:17:56.203Z,4.30
2022-09-21T09:20:31.791Z,3.40
2022-09-21T09:23:10.865Z,4.53
2022-09-21T09:25:42.477Z,4.40
2022-09-21T09:28:27.715Z,4.27
2022-09-21T09:31:01.698Z,4.73
2022-09-21T09:33:43.531Z,4.90
2022-09-21T09:36:14.152Z,4.70
2022-09-21T09:38:48.602Z,4.60
2022-09-21T09:41:30.389Z,4.90
2022-09-21T09:44:14.731Z,5.60
2022-09-21T09:46:55.354Z,4.77
2022-09-21T09:49:37.183Z,4.07
2022-09-21T09:52:06.815Z,4.40
2022-09-21T09:54:37.011Z,4.33
2022-09-21T09:57:07.468Z,4.80
2022-09-21T09:59:41.721Z,4.00
2022-09-21T10:02:21.632Z,4.03
2022-09-21T10:05:06.361Z,3.90
2022-09-21T10:07:40.339Z,4.00
2022-09-21T10:10:34.265Z,4.57
2022-09-21T10:13:14.741Z,4.47
2022-09-21T10:15:49.316Z,4.33
2022-09-21T10:18:21.998Z,3.97
2022-09-21T10:20:59.510Z,3.30
2022-09-21T10:23:29.760Z,3.53
2022-09-21T10:26:02.732Z,3.20
2022-09-21T10:28:32.253Z,3.87
2022-09-21T10:31:22.564Z,3.87
2022-09-21T10:34:05.766Z,3.73
2022-09-21T10:36:36.750Z,3.57
2022-09-21T10:39:27.414Z,4.20
2022-09-21T10:42:00.673Z,3.20
2022-09-21T10:44:35.691Z,3.43
2022-09-21T10:47:20.181Z,2.67
2022-09-21T10:49:51.793Z,3.53
2022-09-21T10:52:23.496Z,4.17
2022-09-21T10:54:55.783Z,3.53
2022-09-21T10:57:27.735Z,3.27
2022-09-21T10:59:57.292Z,4.43
2022-09-21T11:02:36.021Z,5.87
2022-09-21T11:05:12.525Z,3.10
2022-09-21T11:07:46.565Z,3.90
2022-09-21T11:10:21.425Z,3.80
2022-09-21T11:13:00.044Z,3.23
2022-09-21T11:15:50.345Z,3.23
2022-09-21T11:18:25.319Z,30.27
2022-09-21T11:20:59.615Z,2.07
2022-09-21T11:23:45.225Z,2.93
2022-09-21T11:26:20.863Z,3.07
2022-09-21T11:28:54.055Z,2.37
2022-09-21T11:31:58.256Z,3.47
2022-09-21T11:34:44.976Z,2.93
2022-09-21T11:37:24.818Z,2.67
2022-09-21T11:40:09.975Z,3.43
2022-09-21T11:42:57.537Z,2.53
2022-09-21T11:45:50.348Z,2.47
2022-09-21T11:48:30.093Z,2.13
2022-09-21T11:51:11.985Z,2.57
2022-09-21T11:53:53.637Z,2.07
2022-09-21T11:56:34.803Z,2.37
2022-09-21T11:59:14.603Z,2.60
2022-09-21T12:02:03.140Z,2.10
2022-09-21T12:04:42.809Z,2.10
2022-09-21T12:07:27.666Z,2.30
2022-09-21T12:10:19.436Z,2.27
2022-09-21T12:12:55.326Z,2.07
2022-09-21T12:15:29.035Z,1.90
2022-09-21T12:18:06.322Z,2.00
2022-09-21T12:20:46.736Z,2.20
2022-09-21T12:23:19.984Z,2.10
2022-09-21T12:25:53.652Z,2.00
2022-09-21T12:28:26.867Z,1.60
2022-09-21T12:31:00.820Z,2.33
2022-09-21T12:33:40.541Z,2.20
2022-09-21T12:36:17.048Z,2.90
2022-09-21T12:38:53.006Z,1.90
2022-09-21T12:41:30.368Z,2.03
2022-09-21T12:44:03.497Z,1.63
2022-09-21T12:46:35.920Z,2.00
2022-09-21T12:49:14.161Z,2.40
2022-09-21T12:51:46.502Z,1.80
2022-09-21T12:54:27.734Z,1.60
2022-09-21T12:57:23.531Z,2.03
2022-09-21T13:00:02.986Z,1.80
2022-09-21T13:02:37.017Z,2.30
2022-09-21T13:05:12.771Z,1.43
2022-09-21T13:08:02.113Z,1.53
2022-09-21T13:10:43.755Z,1.93
2022-09-21T13:13:28.934Z,2.27
2022-09-21T13:15:59.976Z,1.93
2022-09-21T13:18:35.810Z,1.87
2022-09-21T13:21:18.187Z,1.97
2022-09-21T13:23:54.640Z,2.80
2022-09-21T13:26:35.751Z,1.90
2022-09-21T13:29:32.901Z,2.20
2022-09-21T13:32:04.058Z,1.73
2022-09-21T13:34:35.551Z,2.10
2022-09-21T13:37:29.131Z,1.70
2022-09-21T13:40:41.266Z,1.50
2022-09-21T13:43:39.567Z,1.53
2022-09-21T13:46:09.715Z,1.40
2022-09-21T13:48:38.361Z,1.40
2022-09-21T13:51:10.993Z,2.00
2022-09-21T13:53:42.361Z,2.10
2022-09-21T13:56:19.329Z,1.80
2022-09-21T13:58:52.367Z,2.53
2022-09-21T14:01:45.868Z,2.60
2022-09-21T14:04:23.680Z,1.90
2022-09-21T14:06:54.201Z,1.57
2022-09-21T14:09:27.547Z,1.80
2022-09-21T14:11:58.982Z,1.37
2022-09-21T14:14:32.830Z,1.53
2022-09-21T14:17:03.693Z,3.10
2022-09-21T14:20:08.018Z,1.80
2022-09-21T14:22:42.075Z,1.70
2022-09-21T14:25:30.612Z,1.30
2022-09-21T14:28:06.774Z,1.70
2022-09-21T14:30:37.993Z,1.40
2022-09-21T14:33:31.594Z,2.47
2022-09-21T14:36:03.703Z,4.77
2022-09-21T14:38:37.864Z,2.30
2022-09-21T14:41:08.682Z,1.30
2022-09-21T14:43:39.824Z,1.33
2022-09-21T14:46:36.158Z,1.50
2022-09-21T14:49:20.707Z,1.10
2022-09-21T14:52:20.229Z,1.27
2022-09-21T14:54:57.380Z,1.50
2022-09-21T14:57:48.996Z,1.20
2022-09-21T15:00:26.600Z,1.10
2022-09-21T15:03:28.042Z,1.70
2022-09-21T15:06:22.896Z,1.20
2022-09-21T15:09:22.095Z,2.47
2022-09-21T15:11:57.500Z,1.20
2022-09-21T15:14:34.909Z,1.80
2022-09-21T15:17:24.209Z,1.80
2022-09-21T15:19:53.028Z,1.60
2022-09-21T15:22:24.548Z,1.90
2022-09-21T15:24:54.179Z,3.00
2022-09-21T15:27:25.125Z,2.20
2022-09-21T15:29:55.468Z,1.60
2022-09-21T15:32:34.200Z,1.70
2022-09-21T15:35:05.180Z,1.87
2022-09-21T15:37:39.583Z,2.37
2022-09-21T15:40:20.467Z,2.70
2022-09-21T15:43:04.575Z,5.10
2022-09-21T15:45:38.085Z,1.73
2022-09-21T15:48:13.568Z,1.63
2022-09-21T15:50:43.594Z,1.33
2022-09-21T15:53:23.169Z,1.47
2022-09-21T15:55:52.530Z,1.60
2022-09-21T15:58:35.775Z,1.80
2022-09-21T16:01:10.256Z,1.80
2022-09-21T16:03:39.983Z,1.47
2022-09-21T16:06:27.496Z,2.33
2022-09-21T16:08:57.654Z,1.53
2022-09-21T16:11:37.751Z,1.70
2022-09-21T16:14:29.284Z,1.60
2022-09-21T16:17:21.200Z,1.43
2022-09-21T16:20:19.529Z,1.60
2022-09-21T16:22:49.468Z,6.60
2022-09-21T16:25:32.516Z,7.03
2022-09-21T16:28:03.709Z,6.53
2022-09-21T16:30:47.322Z,1.90
2022-09-21T16:33:39.871Z,1.77
2022-09-21T16:36:40.667Z,2.00
2022-09-21T16:39:15.584Z,1.80
2022-09-21T16:41:52.077Z,3.23
2022-09-21T16:44:22.858Z,2.60
2022-09-21T16:46:55.490Z,1.90
2022-09-21T16:49:30.153Z,1.90
2022-09-21T16:51:59.798Z,1.50
2022-09-21T16:54:28.890Z,1.83
2022-09-21T16:57:00.914Z,2.10
2022-09-21T16:59:30.110Z,2.27
2022-09-21T17:02:00.437Z,2.50
2022-09-21T17:04:31.957Z,3.37
2022-09-21T17:07:00.841Z,3.00
2022-09-21T17:09:33.243Z,5.30
2022-09-21T17:12:04.457Z,6.90
2022-09-21T17:14:35.506Z,6.67
2022-09-21T17:17:08.454Z,5.10
2022-09-21T17:19:37.630Z,6.67
2022-09-21T17:22:07.146Z,6.33
2022-09-21T17:24:50.452Z,5.40
2022-09-21T17:27:23.023Z,3.80
2022-09-21T17:29:54.026Z,3.13
2022-09-21T17:32:24.705Z,5.03
2022-09-21T17:34:59.729Z,6.47
2022-09-21T17:37:28.950Z,5.07
2022-09-21T17:39:57.804Z,5.00
2022-09-21T17:42:29.721Z,4.40
2022-09-21T17:45:12.455Z,3.67
2022-09-21T17:47:42.126Z,2.70
2022-09-21T17:50:24.120Z,3.20
2022-09-21T17:53:10.786Z,3.73
2022-09-21T17:55:40.638Z,2.70
2022-09-21T17:58:37.524Z,2.10
2022-09-21T18:01:08.675Z,2.20
2022-09-21T18:03:41.141Z,2.60
2022-09-21T18:06:10.944Z,2.40
2022-09-21T18:08:40.696Z,2.80
2022-09-21T18:11:29.412Z,2.37
2022-09-21T18:14:09.957Z,2.87
2022-09-21T18:16:51.496Z,2.57
2022-09-21T18:19:35.306Z,2.17
2022-09-21T18:22:14.061Z,2.60
2022-09-21T18:24:43.502Z,2.60
2022-09-21T18:27:13.306Z,3.13
2022-09-21T18:29:44.026Z,2.30
2022-09-21T18:32:41.120Z,3.13
2022-09-21T18:35:19.469Z,2.40
2022-09-21T18:38:05.591Z,2.60
2022-09-21T18:40:41.186Z,2.57
2022-09-21T18:43:26.621Z,2.40
2022-09-21T18:46:02.557Z,3.07
2022-09-21T18:48:51.184Z,3.20
2022-09-21T18:51:27.279Z,3.93
2022-09-21T18:53:57.297Z,4.23
2022-09-21T18:56:27.207Z,3.43
2022-09-21T18:58:58.133Z,3.57
2022-09-21T19:01:32.976Z,4.53
2022-09-21T19:04:02.378Z,4.60
2022-09-21T19:06:42.601Z,3.87
2022-09-21T19:09:34.215Z,3.40
2022-09-21T19:12:14.340Z,4.40
2022-09-21T19:14:54.881Z,3.23
2022-09-21T19:17:44.166Z,3.23
2022-09-21T19:20:38.822Z,4.50
2022-09-21T19:23:17.485Z,3.23
2022-09-21T19:25:50.105Z,3.57
2022-09-21T19:28:40.439Z,3.47
2022-09-21T19:31:13.533Z,3.33
2022-09-21T19:33:50.530Z,3.30
2022-09-21T19:36:20.706Z,3.33
2022-09-21T19:38:49.852Z,4.90
2022-09-21T19:41:38.752Z,4.60
2022-09-21T19:44:29.795Z,5.13
2022-09-21T19:47:09.457Z,5.43
2022-09-21T19:49:47.324Z,6.83
2022-09-21T19:52:20.096Z,7.27
2022-09-21T19:55:06.778Z,7.10
2022-09-21T19:57:53.339Z,6.50
2022-09-21T20:00:25.998Z,6.83
2022-09-21T20:03:07.452Z,7.20
2022-09-21T20:05:54.958Z,7.73
2022-09-21T20:08:28.847Z,7.33
2022-09-21T20:11:07.682Z,7.03
2022-09-21T20:14:08.225Z,7.60
2022-09-21T20:16:47.641Z,7.00
2022-09-21T20:19:27.422Z,6.90
2022-09-21T20:22:09.169Z,6.57
2022-09-21T20:24:46.612Z,6.30
2022-09-21T20:27:26.527Z,7.10
2022-09-21T20:29:55.206Z,7.17
2022-09-21T20:32:24.445Z,6.20
2022-09-21T20:34:53.037Z,4.63
2022-09-21T20:37:24.711Z,5.50
2022-09-21T20:39:53.261Z,4.43
2022-09-21T20:42:28.626Z,5.67
2022-09-21T20:44:57.530Z,5.87
2022-09-21T20:47:28.941Z,5.67
2022-09-21T20:49:57.575Z,5.20
2022-09-21T20:52:28.033Z,4.70
2022-09-21T20:54:56.581Z,6.53
2022-09-21T20:57:25.508Z,6.47
2022-09-21T20:59:54.045Z,5.97
2022-09-21T21:02:22.575Z,6.70
2022-09-21T21:04:51.098Z,6.43
2022-09-21T21:07:19.696Z,6.80
2022-09-21T21:09:49.680Z,8.13
2022-09-21T21:12:18.626Z,6.70
2022-09-21T21:14:47.462Z,7.60
2022-09-21T21:17:16.173Z,6.27
2022-09-21T21:19:45.469Z,5.80
2022-09-21T21:22:15.698Z,6.10
2022-09-21T21:24:44.391Z,6.90
2022-09-21T21:27:16.598Z,7.27
2022-09-21T21:29:46.250Z,8.30
2022-09-21T21:32:15.558Z,8.10
2022-09-21T21:34:44.049Z,7.70
2022-09-21T21:37:13.017Z,7.97
2022-09-21T21:39:41.766Z,7.40
2022-09-21T21:42:10.929Z,6.53
2022-09-21T21:44:40.826Z,7.83
2022-09-21T21:47:35.095Z,7.30
2022-09-21T21:49:59.717Z,8.87
2022-09-21T21:52:28.201Z,7.60
2022-09-21T21:54:56.806Z,7.73
2022-09-21T21:57:25.298Z,8.60
2022-09-21T21:59:55.134Z,8.23
2022-09-21T22:02:23.893Z,8.57
2022-09-21T22:04:52.891Z,8.70
2022-09-21T22:07:21.406Z,9.70
2022-09-21T22:09:49.870Z,8.80
2022-09-21T22:12:18.345Z,10.20
2022-09-21T22:14:47.712Z,9.97
2022-09-21T22:17:17.528Z,7.97
2022-09-21T22:19:46.022Z,8.43
2022-09-21T22:22:14.502Z,8.70
2022-09-21T22:24:43.060Z,9.37
2022-09-21T22:27:11.528Z,8.77
2022-09-21T22:29:40.643Z,8.33
2022-09-21T22:32:09.137Z,9.90
2022-09-21T22:34:38.986Z,9.03
2022-09-21T22:37:07.572Z,10.20
2022-09-21T22:39:36.300Z,10.77
2022-09-21T22:42:05.401Z,9.57
2022-09-21T22:44:33.843Z,9.37
2022-09-21T22:47:02.319Z,8.50
2022-09-21T22:49:30.829Z,9.23
2022-09-21T22:52:00.661Z,9.40
2022-09-21T22:54:29.176Z,9.30
2022-09-21T22:56:57.620Z,8.67
2022-09-21T22:59:26.070Z,9.27
2022-09-21T23:01:56.385Z,8.63
2022-09-21T23:04:24.929Z,10.10
2022-09-21T23:06:53.350Z,9.23
2022-09-21T23:09:23.399Z,9.83
2022-09-21T23:11:53.793Z,9.47
2022-09-21T23:14:24.010Z,9.13
2022-09-21T23:16:53.144Z,11.90
2022-09-21T23:19:21.613Z,10.40
2022-09-21T23:21:51.318Z,10.17
2022-09-21T23:24:20.628Z,10.73
2022-09-21T23:26:51.596Z,10.13
2022-09-21T23:29:20.149Z,10.13
2022-09-21T23:31:48.635Z,9.87
2022-09-21T23:34:17.664Z,9.97
2022-09-21T23:36:47.001Z,10.13
2022-09-21T23:39:16.288Z,10.97
2022-09-21T23:41:44.805Z,9.90
2022-09-21T23:44:14.610Z,10.47
2022-09-21T23:46:43.611Z,9.77
2022-09-21T23:49:12.131Z,9.50
2022-09-21T23:51:41.155Z,9.40
2022-09-21T23:54:09.843Z,9.93
2022-09-21T23:56:38.742Z,9.37
2022-09-21T23:59:07.545Z,10.23
